createdAt,value
2022-10-09T00:00:49.862Z,9.20
2022-10-09T00:03:19.152Z,9.10
2022-10-09T00:05:47.372Z,9.10
2022-10-09T00:08:15.203Z,9.00
2022-10-09T00:10:43.426Z,8.90
2022-10-09T00:13:13.178Z,8.80
2022-10-09T00:15:42.132Z,8.80
2022-10-09T00:18:11.219Z,8.70
2022-10-09T00:20:39.685Z,8.70
2022-10-09T00:23:08.318Z,8.60
2022-10-09T00:25:36.753Z,8.60
2022-10-09T00:28:05.518Z,8.60
2022-10-09T00:30:35.197Z,8.70
2022-10-09T00:33:03.050Z,8.60
2022-10-09T00:35:30.948Z,8.60
2022-10-09T00:37:58.862Z,8.60
2022-10-09T00:40:26.776Z,8.50
2022-10-09T00:42:58.027Z,8.50
2022-10-09T00:45:26.861Z,8.50
2022-10-09T00:47:59.827Z,8.40
2022-10-09T00:50:31.824Z,8.40
2022-10-09T00:53:03.447Z,8.30
2022-10-09T00:55:31.909Z,8.30
2022-10-09T00:58:02.068Z,8.40
2022-10-09T01:00:30.329Z,8.40
2022-10-09T01:02:59.525Z,8.40
2022-10-09T01:05:41.759Z,8.30
2022-10-09T01:08:15.792Z,8.30
2022-10-09T01:10:55.389Z,8.30
2022-10-09T01:13:27.888Z,8.30
2022-10-09T01:16:00.146Z,8.30
2022-10-09T01:18:35.891Z,8.30
2022-10-09T01:21:07.585Z,8.30
2022-10-09T01:23:54.047Z,8.30
2022-10-09T01:27:02.885Z,8.20
2022-10-09T01:29:36.365Z,8.10
2022-10-09T01:32:06.482Z,8.00
2022-10-09T01:34:35.066Z,8.00
2022-10-09T01:37:03.820Z,8.00
2022-10-09T01:39:33.148Z,8.00
2022-10-09T01:42:01.759Z,8.00
2022-10-09T01:44:33.407Z,7.90
2022-10-09T01:47:01.793Z,7.90
2022-10-09T01:49:44.943Z,7.90
2022-10-09T01:52:33.491Z,7.80
2022-10-09T01:55:11.399Z,7.90
2022-10-09T01:57:45.433Z,7.90
2022-10-09T02:00:15.440Z,7.90
2022-10-09T02:02:44.709Z,7.90
2022-10-09T02:05:18.815Z,7.90
2022-10-09T02:07:47.045Z,8.00
2022-10-09T02:10:16.755Z,8.00
2022-10-09T02:12:47.847Z,7.90
2022-10-09T02:15:17.869Z,7.90
2022-10-09T02:17:49.877Z,7.80
2022-10-09T02:20:23.085Z,7.80
2022-10-09T02:22:51.471Z,7.80
2022-10-09T02:25:20.188Z,7.70
2022-10-09T02:27:49.048Z,7.70
2022-10-09T02:30:20.703Z,7.70
2022-10-09T02:32:53.075Z,7.70
2022-10-09T02:35:21.568Z,7.60
2022-10-09T02:37:49.503Z,7.70
2022-10-09T02:40:17.529Z,7.70
2022-10-09T02:42:45.559Z,7.70
2022-10-09T02:45:13.560Z,7.60
2022-10-09T02:47:42.785Z,7.60
2022-10-09T02:50:11.008Z,7.50
2022-10-09T02:52:39.145Z,7.40
2022-10-09T02:55:07.449Z,7.40
2022-10-09T02:57:35.273Z,7.30
2022-10-09T03:00:03.703Z,7.30
2022-10-09T03:02:31.702Z,7.30
2022-10-09T03:05:01.105Z,7.30
2022-10-09T03:07:29.036Z,7.20
2022-10-09T03:09:58.228Z,7.20
2022-10-09T03:12:26.130Z,7.10
2022-10-09T03:14:54.114Z,7.20
2022-10-09T03:17:22.018Z,7.30
2022-10-09T03:19:49.882Z,7.30
2022-10-09T03:22:19.172Z,7.40
2022-10-09T03:24:47.023Z,7.40
2022-10-09T03:27:14.900Z,7.40
2022-10-09T03:29:42.762Z,7.30
2022-10-09T03:32:10.701Z,7.30
2022-10-09T03:34:38.699Z,7.20
2022-10-09T03:37:06.851Z,7.20
2022-10-09T03:39:36.025Z,7.10
2022-10-09T03:42:03.860Z,7.10
2022-10-09T03:44:31.800Z,7.00
2022-10-09T03:46:59.961Z,6.90
2022-10-09T03:49:27.845Z,6.80
2022-10-09T03:51:55.715Z,6.90
2022-10-09T03:54:23.530Z,7.00
2022-10-09T03:56:52.719Z,7.00
2022-10-09T03:59:20.490Z,7.10
2022-10-09T04:01:48.410Z,7.10
2022-10-09T04:04:16.619Z,7.10
2022-10-09T04:06:44.450Z,7.10
2022-10-09T04:09:12.352Z,7.00
2022-10-09T04:11:40.187Z,7.00
2022-10-09T04:14:09.831Z,7.00
2022-10-09T04:16:37.774Z,7.00
2022-10-09T04:19:05.751Z,6.90
2022-10-09T04:21:33.638Z,6.90
2022-10-09T04:24:03.438Z,6.90
2022-10-09T04:26:31.341Z,6.80
2022-10-09T04:28:59.194Z,6.80
2022-10-09T04:31:28.501Z,6.80
2022-10-09T04:33:56.478Z,6.80
2022-10-09T04:36:24.353Z,6.70
2022-10-09T04:38:52.577Z,6.80
2022-10-09T04:41:20.585Z,6.70
2022-10-09T04:43:48.514Z,6.70
2022-10-09T04:46:16.715Z,6.70
2022-10-09T04:48:48.024Z,6.70
2022-10-09T04:51:16.555Z,6.60
2022-10-09T04:53:45.267Z,6.60
2022-10-09T04:56:18.394Z,6.60
2022-10-09T04:58:47.929Z,6.60
2022-10-09T05:01:18.516Z,6.50
2022-10-09T05:03:48.473Z,6.50
2022-10-09T05:06:17.169Z,6.50
2022-10-09T05:08:45.172Z,6.50
2022-10-09T05:11:15.552Z,6.50
2022-10-09T05:13:45.880Z,6.50
2022-10-09T05:16:15.392Z,6.60
2022-10-09T05:18:44.317Z,6.50
2022-10-09T05:21:13.776Z,6.50
2022-10-09T05:23:42.144Z,6.50
2022-10-09T05:26:16.490Z,6.50
2022-10-09T05:28:44.366Z,6.50
2022-10-09T05:31:19.107Z,6.50
2022-10-09T05:33:47.465Z,6.40
2022-10-09T05:36:17.303Z,6.30
2022-10-09T05:38:45.667Z,6.30
2022-10-09T05:41:15.338Z,6.20
2022-10-09T05:43:44.886Z,6.20
2022-10-09T05:46:15.179Z,6.20
2022-10-09T05:48:45.434Z,6.20
2022-10-09T05:51:17.283Z,6.20
2022-10-09T05:53:46.647Z,6.20
2022-10-09T05:56:17.496Z,6.20
2022-10-09T05:58:46.583Z,6.20
2022-10-09T06:01:14.577Z,6.20
2022-10-09T06:03:42.694Z,6.20
2022-10-09T06:06:10.836Z,6.20
2022-10-09T06:08:40.360Z,6.20
2022-10-09T06:11:14.142Z,6.20
2022-10-09T06:13:42.313Z,6.20
2022-10-09T06:16:11.493Z,6.20
2022-10-09T06:18:39.773Z,6.30
2022-10-09T06:21:08.234Z,6.40
2022-10-09T06:23:36.510Z,6.60
2022-10-09T06:26:08.798Z,6.80
2022-10-09T06:28:37.277Z,6.90
2022-10-09T06:31:07.673Z,7.00
2022-10-09T06:33:38.012Z,7.10
2022-10-09T06:36:10.264Z,7.00
2022-10-09T06:38:38.668Z,7.00
2022-10-09T06:41:10.325Z,7.10
2022-10-09T06:43:38.201Z,7.10
2022-10-09T06:46:08.132Z,7.10
2022-10-09T06:48:37.625Z,7.20
2022-10-09T06:51:07.327Z,7.20
2022-10-09T06:53:35.496Z,7.30
2022-10-09T06:56:03.322Z,7.50
2022-10-09T06:58:33.043Z,7.60
2022-10-09T07:01:06.693Z,7.70
2022-10-09T07:03:34.954Z,7.80
2022-10-09T07:06:10.629Z,7.90
2022-10-09T07:08:39.241Z,8.00
2022-10-09T07:11:11.691Z,8.10
2022-10-09T07:13:42.402Z,8.20
2022-10-09T07:16:11.139Z,8.30
2022-10-09T07:18:39.912Z,8.40
2022-10-09T07:21:09.274Z,8.50
2022-10-09T07:23:37.854Z,8.60
2022-10-09T07:26:12.027Z,8.60
2022-10-09T07:28:42.320Z,8.70
2022-10-09T07:31:11.139Z,8.80
2022-10-09T07:33:39.516Z,8.90
2022-10-09T07:36:08.887Z,9.00
2022-10-09T07:38:36.837Z,9.10
2022-10-09T07:41:06.988Z,9.20
2022-10-09T07:43:36.967Z,9.30
2022-10-09T07:46:07.942Z,9.40
2022-10-09T07:48:36.547Z,9.60
2022-10-09T07:51:09.758Z,9.70
2022-10-09T07:53:38.007Z,9.80
2022-10-09T07:56:06.940Z,9.90
2022-10-09T07:58:34.996Z,10.00
2022-10-09T08:01:08.518Z,10.00
2022-10-09T08:03:37.131Z,10.20
2022-10-09T08:06:05.259Z,10.30
2022-10-09T08:08:33.283Z,10.50
2022-10-09T08:11:01.163Z,10.70
2022-10-09T08:13:29.244Z,10.80
2022-10-09T08:16:00.436Z,10.90
2022-10-09T08:18:29.783Z,11.10
2022-10-09T08:20:59.808Z,11.30
2022-10-09T08:23:27.937Z,11.40
2022-10-09T08:25:56.126Z,11.50
2022-10-09T08:28:24.416Z,11.60
2022-10-09T08:30:52.399Z,11.80
2022-10-09T08:33:22.114Z,12.00
2022-10-09T08:35:51.841Z,12.20
2022-10-09T08:38:44.726Z,12.40
2022-10-09T08:41:10.975Z,12.60
2022-10-09T08:43:42.753Z,12.80
2022-10-09T08:46:20.791Z,13.00
2022-10-09T08:48:51.259Z,13.10
2022-10-09T08:51:24.969Z,13.20
2022-10-09T08:53:59.285Z,13.40
2022-10-09T08:56:28.301Z,13.70
2022-10-09T08:58:56.832Z,14.00
2022-10-09T09:01:33.238Z,14.10
2022-10-09T09:04:24.553Z,14.20
2022-10-09T09:07:02.851Z,14.40
2022-10-09T09:09:43.359Z,14.40
2022-10-09T09:12:19.193Z,14.70
2022-10-09T09:15:00.177Z,15.00
2022-10-09T09:17:34.671Z,15.30
2022-10-09T09:20:11.709Z,15.50
2022-10-09T09:22:44.389Z,15.60
2022-10-09T09:25:20.081Z,15.80
2022-10-09T09:27:48.588Z,15.90
2022-10-09T09:30:21.600Z,15.90
2022-10-09T09:33:05.623Z,16.10
2022-10-09T09:35:39.023Z,16.30
2022-10-09T09:38:08.786Z,16.50
2022-10-09T09:40:38.564Z,16.60
2022-10-09T09:43:15.910Z,16.60
2022-10-09T09:45:44.766Z,16.60
2022-10-09T09:48:17.526Z,16.80
2022-10-09T09:50:56.240Z,17.10
2022-10-09T09:53:38.608Z,17.40
2022-10-09T09:56:07.359Z,17.90
2022-10-09T09:58:37.858Z,18.00
2022-10-09T10:01:07.659Z,18.00
2022-10-09T10:03:36.840Z,18.10
2022-10-09T10:06:05.057Z,18.10
2022-10-09T10:08:35.491Z,17.90
2022-10-09T10:11:06.756Z,17.90
2022-10-09T10:13:37.976Z,17.90
2022-10-09T10:16:07.963Z,18.00
2022-10-09T10:18:40.873Z,18.30
2022-10-09T10:21:13.223Z,18.50
2022-10-09T10:23:45.762Z,18.90
2022-10-09T10:26:23.811Z,18.90
2022-10-09T10:28:56.814Z,18.70
2022-10-09T10:31:43.727Z,18.70
2022-10-09T10:34:23.878Z,18.70
2022-10-09T10:37:01.075Z,18.90
2022-10-09T10:39:40.861Z,19.20
2022-10-09T10:42:20.127Z,19.20
2022-10-09T10:44:53.385Z,19.30
2022-10-09T10:47:27.016Z,19.70
2022-10-09T10:49:55.866Z,19.60
2022-10-09T10:52:37.460Z,19.60
2022-10-09T10:55:22.871Z,19.80
2022-10-09T10:57:56.725Z,19.70
2022-10-09T11:00:26.384Z,19.70
2022-10-09T11:03:16.420Z,20.00
2022-10-09T11:05:51.380Z,20.00
2022-10-09T11:08:37.604Z,19.80
2022-10-09T11:11:13.954Z,19.90
2022-10-09T11:13:51.818Z,20.20
2022-10-09T11:16:32.956Z,20.30
2022-10-09T11:19:28.570Z,20.60
2022-10-09T11:22:02.974Z,20.90
2022-10-09T11:24:58.587Z,21.10
2022-10-09T11:27:36.706Z,21.10
2022-10-09T11:30:09.963Z,21.60
2022-10-09T11:32:52.368Z,21.70
2022-10-09T11:35:22.787Z,21.60
2022-10-09T11:37:58.708Z,21.60
2022-10-09T11:40:31.575Z,21.90
2022-10-09T11:43:15.471Z,22.10
2022-10-09T11:45:48.960Z,22.20
2022-10-09T11:48:23.090Z,22.60
2022-10-09T11:50:59.506Z,22.80
2022-10-09T11:53:31.123Z,22.60
2022-10-09T11:56:06.689Z,22.60
2022-10-09T11:58:36.501Z,22.70
2022-10-09T12:01:14.505Z,22.90
2022-10-09T12:03:42.538Z,22.30
2022-10-09T12:06:13.447Z,22.20
2022-10-09T12:08:44.352Z,22.50
2022-10-09T12:11:15.352Z,22.30
2022-10-09T12:13:48.794Z,22.30
2022-10-09T12:16:41.625Z,22.00
2022-10-09T12:19:19.600Z,22.00
2022-10-09T12:21:53.740Z,21.70
2022-10-09T12:24:24.402Z,21.60
2022-10-09T12:26:55.527Z,21.30
2022-10-09T12:29:30.034Z,21.40
2022-10-09T12:32:02.849Z,21.60
2022-10-09T12:34:34.579Z,21.80
2022-10-09T12:37:11.993Z,21.60
2022-10-09T12:39:40.752Z,21.40
2022-10-09T12:42:15.052Z,21.00
2022-10-09T12:44:45.965Z,20.70
2022-10-09T12:47:20.036Z,20.50
2022-10-09T12:49:57.148Z,20.20
2022-10-09T12:52:25.055Z,19.90
2022-10-09T12:54:53.012Z,19.80
2022-10-09T12:57:24.048Z,19.80
2022-10-09T12:59:56.715Z,19.70
2022-10-09T13:02:24.853Z,19.80
2022-10-09T13:04:58.581Z,19.70
2022-10-09T13:07:29.408Z,19.70
2022-10-09T13:10:04.098Z,19.40
2022-10-09T13:12:33.398Z,19.30
2022-10-09T13:15:05.245Z,19.40
2022-10-09T13:17:35.203Z,19.50
2022-10-09T13:20:23.488Z,19.50
2022-10-09T13:22:55.501Z,19.90
2022-10-09T13:25:23.789Z,20.10
2022-10-09T13:27:52.271Z,20.50
2022-10-09T13:30:21.766Z,20.70
2022-10-09T13:32:49.736Z,20.70
2022-10-09T13:35:18.157Z,20.70
2022-10-09T13:37:46.131Z,20.60
2022-10-09T13:40:17.960Z,20.10
2022-10-09T13:42:51.373Z,20.20
2022-10-09T13:45:21.170Z,20.20
2022-10-09T13:47:49.229Z,20.60
2022-10-09T13:50:18.029Z,21.30
2022-10-09T13:52:46.291Z,21.50
2022-10-09T13:55:14.934Z,21.60
2022-10-09T13:57:42.981Z,22.10
2022-10-09T14:00:12.125Z,22.60
2022-10-09T14:02:41.388Z,22.90
2022-10-09T14:05:09.554Z,22.40
2022-10-09T14:07:37.941Z,21.80
2022-10-09T14:10:06.819Z,21.50
2022-10-09T14:12:34.743Z,21.10
2022-10-09T14:15:02.676Z,21.00
2022-10-09T14:17:30.547Z,21.20
2022-10-09T14:19:59.870Z,21.30
2022-10-09T14:22:27.712Z,21.50
2022-10-09T14:24:55.578Z,21.90
2022-10-09T14:27:23.569Z,22.10
2022-10-09T14:29:54.159Z,22.30
2022-10-09T14:32:24.538Z,22.20
2022-10-09T14:34:53.003Z,22.00
2022-10-09T14:37:40.487Z,22.20
2022-10-09T14:40:10.566Z,22.20
2022-10-09T14:42:39.173Z,21.80
2022-10-09T14:45:08.030Z,22.40
2022-10-09T14:47:36.067Z,22.90
2022-10-09T14:50:04.433Z,23.30
2022-10-09T14:52:33.659Z,23.40
2022-10-09T14:55:01.531Z,23.30
2022-10-09T14:57:32.983Z,23.40
2022-10-09T15:00:04.183Z,23.50
2022-10-09T15:02:32.198Z,22.90
2022-10-09T15:05:00.122Z,22.30
2022-10-09T15:07:28.212Z,21.40
2022-10-09T15:09:57.919Z,20.80
2022-10-09T15:12:25.782Z,20.00
2022-10-09T15:14:53.668Z,19.50
2022-10-09T15:17:21.507Z,19.10
2022-10-09T15:19:49.334Z,18.90
2022-10-09T15:22:17.125Z,18.70
2022-10-09T15:24:44.962Z,18.40
2022-10-09T15:27:14.107Z,18.20
2022-10-09T15:29:41.965Z,18.10
2022-10-09T15:32:09.824Z,17.90
2022-10-09T15:34:41.024Z,17.70
2022-10-09T15:37:09.263Z,17.70
2022-10-09T15:39:37.492Z,17.60
2022-10-09T15:42:05.676Z,17.40
2022-10-09T15:44:34.985Z,17.30
2022-10-09T15:47:02.936Z,17.20
2022-10-09T15:49:30.825Z,17.20
2022-10-09T15:51:58.671Z,17.10
2022-10-09T15:54:27.726Z,17.00
2022-10-09T15:56:55.648Z,16.90
2022-10-09T15:59:23.521Z,16.90
2022-10-09T16:01:53.090Z,16.90
2022-10-09T16:04:21.079Z,16.80
2022-10-09T16:06:49.079Z,16.70
2022-10-09T16:09:17.167Z,16.70
2022-10-09T16:11:45.481Z,16.70
2022-10-09T16:14:13.701Z,16.70
2022-10-09T16:16:41.600Z,16.70
2022-10-09T16:19:10.820Z,16.60
2022-10-09T16:21:38.696Z,16.40
2022-10-09T16:24:06.907Z,16.30
2022-10-09T16:26:34.705Z,16.20
2022-10-09T16:29:02.627Z,16.20
2022-10-09T16:31:34.620Z,16.00
2022-10-09T16:34:02.971Z,15.90
2022-10-09T16:36:32.461Z,15.90
2022-10-09T16:39:00.749Z,15.80
2022-10-09T16:41:28.598Z,15.70
2022-10-09T16:44:00.088Z,15.70
2022-10-09T16:46:29.840Z,15.60
2022-10-09T16:48:59.509Z,15.50
2022-10-09T16:51:29.812Z,15.50
2022-10-09T16:54:01.705Z,15.40
2022-10-09T16:56:32.873Z,15.40
2022-10-09T16:59:03.210Z,15.30
2022-10-09T17:01:32.143Z,15.30
2022-10-09T17:04:00.994Z,15.30
2022-10-09T17:06:29.289Z,15.20
2022-10-09T17:09:00.168Z,15.20
2022-10-09T17:11:29.823Z,15.10
2022-10-09T17:13:58.598Z,15.10
2022-10-09T17:16:28.186Z,15.10
2022-10-09T17:18:56.973Z,15.10
2022-10-09T17:21:27.858Z,15.00
2022-10-09T17:24:02.116Z,14.90
2022-10-09T17:26:30.934Z,14.90
2022-10-09T17:29:00.200Z,14.90
2022-10-09T17:31:28.918Z,14.80
2022-10-09T17:33:58.170Z,14.80
2022-10-09T17:36:28.614Z,14.70
2022-10-09T17:38:56.493Z,14.70
2022-10-09T17:41:26.798Z,14.60
2022-10-09T17:43:56.495Z,14.50
2022-10-09T17:46:25.942Z,14.60
2022-10-09T17:48:56.001Z,14.50
2022-10-09T17:51:26.262Z,14.40
2022-10-09T17:53:54.966Z,14.30
2022-10-09T17:56:22.852Z,14.30
2022-10-09T17:58:52.808Z,14.30
2022-10-09T18:01:20.872Z,14.20
2022-10-09T18:03:48.925Z,14.20
2022-10-09T18:06:18.093Z,14.20
2022-10-09T18:08:46.351Z,14.10
2022-10-09T18:11:17.071Z,14.10
2022-10-09T18:13:46.157Z,14.10
2022-10-09T18:16:18.880Z,14.10
2022-10-09T18:18:48.032Z,14.10
2022-10-09T18:21:17.582Z,14.10
2022-10-09T18:23:46.348Z,14.00
2022-10-09T18:26:16.915Z,13.90
2022-10-09T18:28:48.214Z,13.90
2022-10-09T18:31:20.117Z,13.90
2022-10-09T18:33:48.573Z,13.80
2022-10-09T18:36:19.497Z,13.70
2022-10-09T18:38:49.265Z,13.70
2022-10-09T18:41:18.499Z,13.60
2022-10-09T18:43:47.429Z,13.60
2022-10-09T18:46:17.732Z,13.50
2022-10-09T18:48:46.616Z,13.40
2022-10-09T18:51:17.209Z,13.30
2022-10-09T18:53:48.738Z,13.30
2022-10-09T18:56:18.561Z,13.20
2022-10-09T18:58:47.036Z,13.20
2022-10-09T19:01:15.064Z,13.20
2022-10-09T19:03:47.470Z,13.10
2022-10-09T19:06:18.286Z,13.00
2022-10-09T19:08:46.186Z,13.10
2022-10-09T19:11:14.334Z,13.00
2022-10-09T19:13:42.675Z,12.90
2022-10-09T19:16:10.853Z,12.90
2022-10-09T19:18:39.460Z,12.80
2022-10-09T19:21:12.810Z,12.70
2022-10-09T19:23:40.741Z,12.70
2022-10-09T19:26:08.875Z,12.60
2022-10-09T19:28:38.434Z,12.50
2022-10-09T19:31:07.136Z,12.40
2022-10-09T19:33:36.213Z,12.30
2022-10-09T19:36:04.867Z,12.20
2022-10-09T19:38:34.469Z,12.20
2022-10-09T19:41:04.939Z,12.10
2022-10-09T19:43:32.890Z,12.00
2022-10-09T19:46:05.372Z,11.90
2022-10-09T19:48:33.791Z,11.80
2022-10-09T19:51:06.799Z,11.80
2022-10-09T19:53:36.793Z,11.70
2022-10-09T19:56:10.327Z,11.60
2022-10-09T19:58:40.746Z,11.60
2022-10-09T20:01:08.910Z,11.50
2022-10-09T20:03:36.905Z,11.50
2022-10-09T20:06:06.466Z,11.50
2022-10-09T20:08:35.661Z,11.50
2022-10-09T20:11:04.628Z,11.50
2022-10-09T20:13:33.574Z,11.60
2022-10-09T20:16:02.465Z,11.60
2022-10-09T20:18:30.715Z,11.60
2022-10-09T20:20:58.646Z,11.60
2022-10-09T20:23:26.587Z,11.60
2022-10-09T20:26:01.477Z,11.60
2022-10-09T20:28:31.955Z,11.70
2022-10-09T20:31:01.637Z,11.70
2022-10-09T20:33:30.535Z,11.80
2022-10-09T20:35:58.510Z,11.90
2022-10-09T20:38:26.555Z,11.90
2022-10-09T20:40:55.203Z,11.90
2022-10-09T20:43:24.474Z,12.00
2022-10-09T20:45:52.280Z,12.00
2022-10-09T20:48:20.128Z,12.10
2022-10-09T20:50:47.979Z,12.10
2022-10-09T20:53:16.719Z,12.20
2022-10-09T20:55:44.562Z,12.20
2022-10-09T20:58:12.706Z,12.40
2022-10-09T21:00:45.328Z,12.50
2022-10-09T21:03:13.225Z,12.60
2022-10-09T21:05:42.819Z,12.70
2022-10-09T21:08:11.197Z,12.70
2022-10-09T21:10:44.554Z,12.80
2022-10-09T21:13:12.603Z,12.70
2022-10-09T21:15:45.402Z,12.70
2022-10-09T21:18:13.592Z,12.70
2022-10-09T21:20:43.253Z,12.70
2022-10-09T21:23:13.178Z,12.90
2022-10-09T21:25:47.860Z,13.00
2022-10-09T21:28:16.269Z,13.10
2022-10-09T21:30:46.082Z,13.10
2022-10-09T21:33:14.754Z,13.10
2022-10-09T21:35:44.431Z,13.10
2022-10-09T21:38:14.659Z,13.10
2022-10-09T21:40:43.066Z,13.20
2022-10-09T21:43:11.405Z,13.20
2022-10-09T21:45:39.936Z,13.20
2022-10-09T21:48:09.482Z,13.20
2022-10-09T21:50:37.818Z,13.30
2022-10-09T21:53:05.727Z,13.30
2022-10-09T21:55:33.605Z,13.30
2022-10-09T21:58:01.447Z,13.30
2022-10-09T22:00:29.479Z,13.20
2022-10-09T22:02:57.397Z,13.30
2022-10-09T22:05:26.648Z,13.30
2022-10-09T22:07:54.574Z,13.30
2022-10-09T22:10:22.445Z,13.20
2022-10-09T22:12:50.601Z,13.10
2022-10-09T22:15:18.845Z,13.00
2022-10-09T22:17:46.809Z,13.00
2022-10-09T22:20:14.688Z,12.90
2022-10-09T22:22:44.261Z,12.90
2022-10-09T22:25:12.103Z,12.80
2022-10-09T22:27:39.998Z,12.60
2022-10-09T22:30:09.228Z,12.60
2022-10-09T22:32:37.063Z,12.40
2022-10-09T22:35:05.900Z,12.40
2022-10-09T22:37:33.733Z,12.30
2022-10-09T22:40:02.886Z,12.30
2022-10-09T22:42:30.729Z,12.20
2022-10-09T22:44:58.923Z,12.10
2022-10-09T22:47:26.816Z,12.10
2022-10-09T22:49:54.668Z,12.00
2022-10-09T22:52:22.510Z,11.90
2022-10-09T22:54:50.376Z,11.80
2022-10-09T22:57:20.120Z,11.80
2022-10-09T22:59:48.236Z,11.80
2022-10-09T23:02:16.100Z,11.70
2022-10-09T23:04:43.953Z,11.70
2022-10-09T23:07:11.767Z,11.70
2022-10-09T23:09:39.706Z,11.60
2022-10-09T23:12:07.605Z,11.60
2022-10-09T23:14:36.872Z,11.60
2022-10-09T23:17:04.769Z,11.50
2022-10-09T23:19:33.764Z,11.50
2022-10-09T23:22:01.597Z,11.50
2022-10-09T23:24:29.558Z,11.50
2022-10-09T23:26:57.381Z,11.50
2022-10-09T23:29:25.179Z,11.40
2022-10-09T23:31:54.505Z,11.40
2022-10-09T23:34:22.601Z,11.40
2022-10-09T23:36:50.474Z,11.40
2022-10-09T23:39:18.357Z,11.40
2022-10-09T23:41:46.276Z,11.30
2022-10-09T23:44:15.956Z,11.30
2022-10-09T23:46:45.732Z,11.30
2022-10-09T23:49:14.916Z,11.40
2022-10-09T23:51:42.778Z,11.40
2022-10-09T23:54:10.644Z,11.40
2022-10-09T23:56:38.681Z,11.40
2022-10-09T23:59:07.641Z,11.40
